Almora, Minnesota
Current Conditions -  °F | °C
As of 2:53 AM on Saturday 22 Nov 2014 (Local Time) from KADC Reporting Station
Haze Haze  
Wind Chill: 21°   Ceiling: Unl
Heat Index: 21°   Visibility: 5mi
Dew Point: 21°   Wind: 3mph
Humidity: 100%   Direction: 200°SSW
Pressure: 29.69"   Gusts: NA
Location:  46.3245°N, 95.3401°W
Report Text: KADC 220853Z AUTO 20003KT 5SM BR CLR M06/M06 A2969 RMK AO2
Loading
Personal Weather Stations






























Interactive Weather Map New forecast layout! Learn more

10-Day Weather Forecast

Advertisements
Track Severe Weather on mobile